Time;durP1;ratioP1;P1;durP2;ratioP2;P2;SDS_P1;SDS_P2;PMS_P1;PMS_P2;Temp;Humidity;BMP_temperature;BMP_pressure;BME280_temperature;BME280_humidity;BME280_pressure;Samples;Min_cycle;Max_cycle;Signal;HPM_P1;HPM_P2
2022/07/07 00:02:25;;;;;;;0.95;0.70;;;15.90;99.90;;;;;;5005900;28;20112;-67
2022/07/07 00:04:52;;;;;;;4.90;1.02;;;16.00;99.90;;;;;;5006657;28;20030;-63
2022/07/07 00:07:20;;;;;;;5.10;1.25;;;16.00;99.90;;;;;;5007091;28;20030;-73
2022/07/07 00:09:47;;;;;;;2.92;0.80;;;16.00;99.90;;;;;;5014868;28;20089;-69
2022/07/07 00:12:15;;;;;;;2.25;0.90;;;16.10;99.90;;;;;;5024029;28;20048;-77
2022/07/07 00:14:42;;;;;;;2.88;1.25;;;16.20;99.90;;;;;;5025887;28;20029;-68
2022/07/07 00:17:10;;;;;;;2.40;0.70;;;16.30;99.90;;;;;;5019812;28;20033;-69
2022/07/07 00:19:37;;;;;;;3.13;0.85;;;16.20;99.90;;;;;;5006139;28;20109;-71
2022/07/07 00:22:04;;;;;;;2.15;0.73;;;16.40;99.90;;;;;;5005862;28;20033;-70
2022/07/07 00:24:32;;;;;;;3.75;0.90;;;16.40;99.90;;;;;;5004897;28;20194;-71
2022/07/07 00:26:59;;;;;;;2.22;0.73;;;16.50;99.90;;;;;;5006483;28;20667;-68
2022/07/07 00:29:27;;;;;;;2.10;0.57;;;16.50;99.90;;;;;;5014130;28;20442;-79
2022/07/07 00:31:54;;;;;;;1.95;0.70;;;16.50;99.90;;;;;;5005451;28;20040;-70
2022/07/07 00:34:21;;;;;;;5.05;1.33;;;16.60;99.90;;;;;;5006589;28;20029;-71
2022/07/07 00:36:49;;;;;;;3.53;1.10;;;16.50;99.90;;;;;;5006052;28;20529;-77
2022/07/07 00:39:16;;;;;;;3.55;0.88;;;16.50;99.90;;;;;;5005422;28;20026;-68
2022/07/07 00:41:44;;;;;;;2.53;0.70;;;16.50;99.90;;;;;;5004689;28;20025;-69
2022/07/07 00:44:14;;;;;;;2.47;1.00;;;16.60;99.90;;;;;;5005547;28;20048;-68
2022/07/07 00:46:53;;;;;;;2.63;0.90;;;16.70;99.90;;;;;;5005696;28;20032;-65
2022/07/07 00:49:21;;;;;;;4.35;0.90;;;16.70;99.90;;;;;;4986619;28;20031;-68
2022/07/07 00:51:49;;;;;;;6.82;1.30;;;16.70;99.90;;;;;;5002150;28;20026;-65
2022/07/07 00:54:16;;;;;;;2.90;0.90;;;16.70;99.90;;;;;;5006045;28;20068;-66
2022/07/07 00:56:44;;;;;;;4.47;1.30;;;16.70;99.90;;;;;;5004776;28;20388;-69
2022/07/07 00:59:13;;;;;;;3.92;1.02;;;16.80;99.90;;;;;;5003554;28;20033;-71
2022/07/07 01:01:42;;;;;;;6.32;1.13;;;16.80;99.90;;;;;;5000917;28;20053;-68
2022/07/07 01:04:11;;;;;;;4.22;1.50;;;16.90;99.90;;;;;;5003365;28;20076;-70
2022/07/07 01:06:40;;;;;;;5.45;1.27;;;17.10;99.90;;;;;;5001879;28;20593;-69
2022/07/07 01:09:07;;;;;;;7.32;2.97;;;17.30;99.90;;;;;;5003476;28;20029;-74
2022/07/07 01:11:54;;;;;;;11.88;3.33;;;17.40;99.90;;;;;;5005050;28;20498;-71
2022/07/07 01:14:22;;;;;;;3.05;1.17;;;17.50;99.90;;;;;;5002494;28;20040;-72
2022/07/07 01:16:51;;;;;;;3.75;0.77;;;17.70;99.90;;;;;;5004389;28;20061;-66
2022/07/07 01:19:20;;;;;;;4.50;1.25;;;17.90;99.90;;;;;;5004483;28;20113;-74
2022/07/07 01:22:03;;;;;;;5.80;0.98;;;17.90;99.90;;;;;;5003588;28;20018;-74
2022/07/07 01:24:31;;;;;;;5.18;0.90;;;18.00;99.90;;;;;;5024474;28;20470;-75
2022/07/07 01:27:13;;;;;;;4.32;1.35;;;18.00;99.90;;;;;;5007542;28;20493;-70
2022/07/07 01:29:52;;;;;;;5.13;0.90;;;18.10;99.90;;;;;;5010595;28;20374;-63
2022/07/07 01:32:23;;;;;;;5.25;0.85;;;18.20;99.90;;;;;;5002823;28;20411;-66
2022/07/07 01:34:51;;;;;;;5.22;1.20;;;18.20;99.90;;;;;;4996685;28;20616;-68
2022/07/07 01:37:24;;;;;;;6.78;2.40;;;18.20;99.90;;;;;;5004485;28;20053;-65
2022/07/07 01:39:52;;;;;;;4.25;1.85;;;18.20;99.90;;;;;;5002561;28;20036;-70
2022/07/07 01:42:20;;;;;;;4.53;1.08;;;18.30;99.90;;;;;;5003092;28;20037;-71
2022/07/07 01:44:51;;;;;;;2.55;0.80;;;18.30;99.90;;;;;;5017983;28;20475;-72
2022/07/07 01:47:23;;;;;;;3.13;0.80;;;18.30;99.90;;;;;;5023524;28;20032;-69
2022/07/07 01:49:51;;;;;;;6.07;1.45;;;18.40;99.90;;;;;;5012201;28;20378;-69
2022/07/07 01:52:19;;;;;;;6.38;1.90;;;18.40;99.90;;;;;;5003170;28;20026;-66
2022/07/07 01:54:46;;;;;;;3.28;1.35;;;18.50;99.90;;;;;;5003265;28;20026;-67
2022/07/07 01:57:14;;;;;;;5.05;0.93;;;18.40;99.90;;;;;;5008965;28;20073;-70
2022/07/07 01:59:44;;;;;;;9.45;1.55;;;18.40;99.90;;;;;;5023455;28;20056;-65
2022/07/07 02:02:13;;;;;;;2.28;0.68;;;18.30;99.90;;;;;;5010290;28;20060;-67
2022/07/07 02:04:40;;;;;;;8.75;1.05;;;18.30;99.90;;;;;;5002919;28;20022;-67
2022/07/07 02:07:08;;;;;;;5.40;1.00;;;18.40;99.90;;;;;;4999694;28;20034;-67
2022/07/07 02:09:35;;;;;;;7.38;1.90;;;18.40;99.90;;;;;;5002669;28;20385;-70
2022/07/07 02:12:03;;;;;;;5.80;1.92;;;18.50;99.90;;;;;;5001509;28;20029;-69
2022/07/07 02:14:31;;;;;;;5.57;1.85;;;18.50;99.90;;;;;;5001167;28;20131;-66
2022/07/07 02:16:59;;;;;;;4.50;1.00;;;18.60;99.90;;;;;;5001681;28;20169;-66
2022/07/07 02:19:26;;;;;;;4.82;0.90;;;18.60;99.90;;;;;;5001983;28;20018;-67
2022/07/07 02:21:53;;;;;;;8.85;2.13;;;18.70;99.90;;;;;;4999274;28;20033;-66
2022/07/07 02:24:21;;;;;;;1.95;0.55;;;18.80;99.90;;;;;;5003096;28;20057;-66
2022/07/07 02:26:48;;;;;;;6.32;1.95;;;18.90;99.90;;;;;;5003237;28;20030;-65
2022/07/07 02:29:15;;;;;;;3.83;0.90;;;19.00;99.90;;;;;;5003440;28;20033;-65
2022/07/07 02:31:43;;;;;;;3.35;0.80;;;19.10;99.90;;;;;;5010939;28;20088;-64
2022/07/07 02:34:10;;;;;;;4.55;0.80;;;19.40;99.90;;;;;;5022318;28;20455;-64
2022/07/07 02:36:38;;;;;;;3.35;0.80;;;19.50;99.90;;;;;;5006693;28;20029;-65
2022/07/07 02:39:05;;;;;;;5.28;1.23;;;19.80;99.90;;;;;;4998143;28;20445;-67
2022/07/07 02:41:32;;;;;;;3.22;0.70;;;20.10;99.90;;;;;;5007783;28;20030;-65
2022/07/07 02:43:59;;;;;;;3.20;1.40;;;20.20;99.90;;;;;;5020306;28;20033;-68
2022/07/07 02:46:28;;;;;;;4.65;0.70;;;20.20;99.90;;;;;;5006104;28;20026;-74
2022/07/07 02:48:56;;;;;;;5.93;0.88;;;20.10;99.90;;;;;;5004789;28;20207;-66
2022/07/07 02:51:23;;;;;;;6.38;1.40;;;20.10;99.90;;;;;;5005083;28;20026;-73
2022/07/07 02:53:50;;;;;;;5.63;1.10;;;20.00;99.90;;;;;;5008591;28;20053;-69
2022/07/07 02:56:18;;;;;;;4.88;1.00;;;20.10;99.90;;;;;;5006216;28;20128;-70
2022/07/07 02:58:45;;;;;;;4.80;0.90;;;20.00;99.90;;;;;;5010561;28;20397;-72
2022/07/07 03:01:13;;;;;;;4.65;1.23;;;19.80;99.90;;;;;;5025960;28;20505;-64
2022/07/07 03:03:40;;;;;;;4.00;2.20;;;19.60;99.90;;;;;;5026945;28;20551;-64
2022/07/07 03:06:07;;;;;;;5.47;1.83;;;19.40;99.90;;;;;;5013581;28;20152;-65
2022/07/07 03:08:35;;;;;;;9.13;2.88;;;19.30;99.90;;;;;;5007439;28;20022;-70
2022/07/07 03:11:02;;;;;;;4.78;2.55;;;19.20;99.90;;;;;;5009210;28;20371;-67
2022/07/07 03:13:30;;;;;;;5.03;2.13;;;19.30;99.90;;;;;;5005612;28;20606;-64
2022/07/07 03:15:58;;;;;;;4.10;1.70;;;19.30;99.90;;;;;;5006400;28;20029;-66
2022/07/07 03:18:25;;;;;;;4.40;2.10;;;19.60;99.90;;;;;;5005869;28;20179;-70
2022/07/07 03:20:52;;;;;;;6.93;2.38;;;19.90;99.90;;;;;;5006819;28;20026;-67
2022/07/07 03:23:20;;;;;;;7.03;2.13;;;20.50;99.90;;;;;;5006373;28;20394;-64
2022/07/07 03:25:47;;;;;;;5.10;2.22;;;20.90;99.70;;;;;;5004019;28;20025;-70
2022/07/07 03:28:15;;;;;;;3.78;1.20;;;20.90;99.40;;;;;;5005472;28;20037;-73
2022/07/07 03:30:42;;;;;;;5.82;1.52;;;21.00;99.40;;;;;;5005714;28;20018;-66
2022/07/07 03:33:09;;;;;;;4.55;1.23;;;21.00;99.10;;;;;;5005784;28;20600;-67
2022/07/07 03:35:38;;;;;;;3.13;1.20;;;20.80;99.10;;;;;;5005181;28;20029;-67
2022/07/07 03:38:05;;;;;;;3.45;0.80;;;20.70;99.70;;;;;;5004975;28;20478;-71
2022/07/07 03:40:34;;;;;;;5.45;2.25;;;20.70;99.50;;;;;;5003235;28;20399;-66
2022/07/07 03:43:01;;;;;;;4.45;1.25;;;20.80;99.30;;;;;;5005250;28;20030;-66
2022/07/07 03:45:29;;;;;;;6.45;2.20;;;20.70;98.70;;;;;;5006368;28;20030;-66
2022/07/07 03:47:56;;;;;;;3.95;1.65;;;20.60;98.90;;;;;;5007010;28;20479;-72
2022/07/07 03:50:23;;;;;;;7.63;1.63;;;20.50;98.80;;;;;;5006846;28;20391;-66
2022/07/07 03:52:59;;;;;;;6.57;1.65;;;20.50;98.90;;;;;;5007362;28;20445;-67
2022/07/07 03:55:26;;;;;;;1.42;0.90;;;20.40;99.00;;;;;;5014849;28;20043;-67
2022/07/07 03:57:53;;;;;;;4.47;2.05;;;20.30;99.30;;;;;;5019452;28;20100;-65
2022/07/07 04:00:21;;;;;;;3.72;1.33;;;20.30;99.80;;;;;;5006034;28;20022;-67
2022/07/07 04:02:48;;;;;;;5.40;1.13;;;20.20;99.90;;;;;;5006241;28;20021;-69
2022/07/07 04:05:15;;;;;;;6.85;1.73;;;20.00;99.90;;;;;;5024717;28;20475;-67
2022/07/07 04:07:44;;;;;;;6.75;1.77;;;19.70;99.90;;;;;;4992742;28;20033;-67
2022/07/07 04:10:12;;;;;;;4.68;1.10;;;19.50;99.90;;;;;;5000972;28;20030;-70
2022/07/07 04:12:39;;;;;;;4.80;1.67;;;19.30;99.90;;;;;;5006198;28;20054;-69
2022/07/07 04:15:07;;;;;;;3.95;1.40;;;19.20;99.90;;;;;;5006113;28;20032;-67
2022/07/07 04:17:34;;;;;;;2.72;1.17;;;19.10;99.90;;;;;;5006218;28;20030;-68
2022/07/07 04:20:02;;;;;;;8.82;2.70;;;19.00;99.90;;;;;;5007265;28;20056;-69
2022/07/07 04:22:29;;;;;;;8.95;1.77;;;18.90;99.90;;;;;;5011337;28;20026;-66
2022/07/07 04:24:57;;;;;;;8.70;2.33;;;18.80;99.90;;;;;;5009075;28;20034;-73
2022/07/07 04:27:24;;;;;;;4.80;1.70;;;18.70;99.90;;;;;;5024938;28;20064;-67
2022/07/07 04:29:51;;;;;;;3.92;1.20;;;18.60;99.90;;;;;;5009695;28;20113;-67
2022/07/07 04:32:18;;;;;;;8.90;1.73;;;18.40;99.90;;;;;;5003314;28;20509;-69
2022/07/07 04:34:46;;;;;;;4.57;1.27;;;18.20;99.90;;;;;;5019997;28;20139;-70
2022/07/07 04:37:13;;;;;;;5.47;1.70;;;18.10;99.90;;;;;;5025126;28;20065;-66
2022/07/07 04:39:40;;;;;;;6.90;1.80;;;18.10;99.90;;;;;;5006555;28;20080;-67
2022/07/07 04:42:08;;;;;;;12.52;1.83;;;18.10;99.90;;;;;;5005324;28;20471;-67
2022/07/07 04:44:35;;;;;;;6.63;2.10;;;18.00;99.90;;;;;;5005765;28;20084;-65
2022/07/07 04:47:03;;;;;;;10.13;2.65;;;18.00;99.90;;;;;;5007589;28;20486;-65
2022/07/07 04:49:31;;;;;;;8.07;1.90;;;17.90;99.90;;;;;;5010779;28;20124;-69
2022/07/07 04:51:58;;;;;;;8.45;2.00;;;17.90;99.90;;;;;;5005772;28;20063;-68
2022/07/07 04:54:25;;;;;;;7.82;2.30;;;17.90;99.90;;;;;;5004125;28;20080;-68
2022/07/07 04:56:53;;;;;;;8.10;2.78;;;17.90;99.90;;;;;;5014491;28;20034;-70
2022/07/07 04:59:20;;;;;;;6.68;1.90;;;17.80;99.90;;;;;;5022216;28;20116;-70
2022/07/07 05:01:47;;;;;;;7.72;2.60;;;17.80;99.90;;;;;;5024033;28;20075;-68
2022/07/07 05:04:15;;;;;;;5.05;1.80;;;17.70;99.90;;;;;;5019552;28;20033;-68
2022/07/07 05:06:42;;;;;;;8.68;2.10;;;17.70;99.90;;;;;;5034665;28;20700;-66
2022/07/07 05:09:10;;;;;;;7.60;1.48;;;17.80;99.90;;;;;;5016670;28;20034;-71
2022/07/07 05:11:37;;;;;;;7.80;2.13;;;17.80;99.90;;;;;;5023702;28;20013;-69
2022/07/07 05:14:05;;;;;;;5.47;1.73;;;17.80;99.90;;;;;;5022982;28;20022;-64
2022/07/07 05:16:32;;;;;;;5.90;2.15;;;17.90;99.90;;;;;;5005499;28;20140;-70
2022/07/07 05:18:59;;;;;;;5.10;1.13;;;17.90;99.90;;;;;;5003900;28;20034;-70
2022/07/07 05:21:27;;;;;;;8.63;1.95;;;17.90;99.90;;;;;;5022039;28;20022;-70
2022/07/07 05:23:54;;;;;;;7.90;2.47;;;17.80;99.90;;;;;;5023608;28;20037;-68
2022/07/07 05:26:21;;;;;;;11.75;2.03;;;17.80;99.90;;;;;;5024509;28;20032;-70
2022/07/07 05:28:49;;;;;;;6.35;2.00;;;17.80;99.90;;;;;;5022673;28;20051;-72
2022/07/07 05:31:16;;;;;;;5.65;1.63;;;17.70;99.90;;;;;;5023020;28;20026;-70
2022/07/07 05:33:44;;;;;;;8.25;1.70;;;17.70;99.90;;;;;;5023412;28;20032;-72
2022/07/07 05:36:11;;;;;;;5.72;1.50;;;17.80;99.90;;;;;;5024194;28;20057;-72
2022/07/07 05:38:39;;;;;;;6.90;2.00;;;17.70;99.90;;;;;;5021280;28;20522;-73
2022/07/07 05:41:06;;;;;;;6.10;1.20;;;17.70;99.90;;;;;;5022811;28;20079;-69
2022/07/07 05:43:33;;;;;;;6.32;1.58;;;17.80;99.90;;;;;;5004876;28;20719;-65
2022/07/07 05:46:01;;;;;;;6.25;1.27;;;17.90;99.90;;;;;;5015137;28;20033;-66
2022/07/07 05:48:28;;;;;;;7.35;1.90;;;17.90;99.90;;;;;;5004941;28;20021;-65
2022/07/07 05:50:55;;;;;;;7.07;1.60;;;17.80;99.90;;;;;;5003539;28;20706;-69
2022/07/07 05:53:23;;;;;;;7.50;2.00;;;17.80;99.90;;;;;;5004821;28;20026;-67
2022/07/07 05:55:50;;;;;;;9.05;2.08;;;17.70;99.90;;;;;;5003670;28;20053;-66
2022/07/07 05:58:17;;;;;;;6.70;2.30;;;17.70;99.90;;;;;;5036848;28;20045;-65
2022/07/07 06:00:45;;;;;;;9.65;2.20;;;17.60;99.90;;;;;;5004265;28;20042;-65
2022/07/07 06:03:12;;;;;;;9.50;2.03;;;17.40;99.90;;;;;;5004968;28;20030;-65
2022/07/07 06:05:40;;;;;;;8.40;2.03;;;17.20;99.90;;;;;;5014331;28;20529;-67
2022/07/07 06:08:08;;;;;;;5.85;1.95;;;17.10;99.90;;;;;;5019814;28;20076;-67
2022/07/07 06:10:36;;;;;;;8.27;2.15;;;17.00;99.90;;;;;;5004909;28;20018;-65
2022/07/07 06:13:04;;;;;;;6.25;1.98;;;16.80;99.90;;;;;;5006007;28;20076;-71
2022/07/07 06:15:33;;;;;;;8.07;1.98;;;16.70;99.90;;;;;;5023762;28;20029;-66
2022/07/07 06:18:06;;;;;;;9.75;2.08;;;16.70;99.90;;;;;;5023418;28;20090;-70
2022/07/07 06:20:33;;;;;;;4.20;1.02;;;16.50;99.90;;;;;;5023834;28;20075;-69
2022/07/07 06:23:01;;;;;;;6.60;1.73;;;16.40;99.90;;;;;;5022990;28;20358;-72
2022/07/07 06:25:28;;;;;;;5.22;2.30;;;16.30;99.90;;;;;;5014927;28;20029;-69
2022/07/07 06:27:56;;;;;;;9.07;2.88;;;16.20;99.90;;;;;;5007809;28;20022;-69
2022/07/07 06:30:25;;;;;;;10.48;4.50;;;16.10;99.90;;;;;;5009819;28;20494;-70
2022/07/07 06:32:52;;;;;;;10.82;4.22;;;16.00;99.90;;;;;;5016176;28;20022;-67
2022/07/07 06:35:20;;;;;;;12.57;4.10;;;16.00;99.90;;;;;;5028316;28;20032;-68
2022/07/07 06:37:48;;;;;;;17.30;3.80;;;15.90;99.90;;;;;;5027423;28;20037;-67
2022/07/07 06:40:16;;;;;;;12.85;3.78;;;15.80;99.90;;;;;;5028257;28;20753;-69
2022/07/07 06:42:43;;;;;;;9.25;2.95;;;15.70;99.90;;;;;;5027401;28;20029;-66
2022/07/07 06:45:11;;;;;;;8.00;3.05;;;15.70;99.90;;;;;;5013432;28;20067;-67
2022/07/07 06:47:38;;;;;;;7.38;2.45;;;15.60;99.90;;;;;;5028520;28;20421;-72
2022/07/07 06:50:06;;;;;;;10.13;3.55;;;15.60;99.90;;;;;;5017821;28;20100;-74
2022/07/07 06:52:34;;;;;;;12.35;3.20;;;15.60;99.90;;;;;;5008038;28;20474;-68
2022/07/07 06:55:02;;;;;;;8.57;2.65;;;15.50;99.90;;;;;;5007860;28;20061;-69
2022/07/07 06:57:29;;;;;;;9.63;2.95;;;15.40;99.90;;;;;;5015194;28;20022;-70
2022/07/07 06:59:57;;;;;;;11.07;3.03;;;15.40;99.90;;;;;;5007569;28;20026;-71
2022/07/07 07:02:25;;;;;;;11.20;3.75;;;15.40;99.90;;;;;;5008642;28;20029;-70
2022/07/07 07:04:52;;;;;;;8.65;3.13;;;15.30;99.90;;;;;;5007564;28;20101;-66
2022/07/07 07:07:19;;;;;;;13.63;3.72;;;15.30;99.90;;;;;;5007962;28;20544;-67
2022/07/07 07:09:47;;;;;;;12.15;4.20;;;15.20;99.90;;;;;;5020242;28;20036;-72
2022/07/07 07:12:14;;;;;;;12.02;5.43;;;15.20;99.90;;;;;;5016380;28;20029;-66
2022/07/07 07:14:41;;;;;;;13.20;4.85;;;15.20;99.90;;;;;;5007820;28;20108;-70
2022/07/07 07:17:09;;;;;;;10.00;5.43;;;15.10;99.90;;;;;;5007442;28;20077;-69
2022/07/07 07:19:36;;;;;;;10.10;3.67;;;15.10;99.90;;;;;;5006294;28;20030;-66
2022/07/07 07:22:03;;;;;;;8.85;4.18;;;15.10;99.90;;;;;;5004853;28;20907;-67
2022/07/07 07:24:31;;;;;;;10.43;4.75;;;15.00;99.90;;;;;;5005811;28;20022;-68
2022/07/07 07:26:58;;;;;;;16.27;4.72;;;14.90;99.90;;;;;;5006207;28;20029;-70
2022/07/07 07:29:25;;;;;;;10.73;4.95;;;14.90;99.90;;;;;;5005422;28;20021;-71
2022/07/07 07:31:52;;;;;;;14.43;6.00;;;14.80;99.90;;;;;;5004722;28;20033;-68
2022/07/07 07:34:20;;;;;;;11.82;5.82;;;14.80;99.90;;;;;;5005324;28;20429;-66
2022/07/07 07:36:47;;;;;;;12.70;6.85;;;14.70;99.90;;;;;;5005516;28;20018;-68
2022/07/07 07:39:14;;;;;;;14.48;8.02;;;14.70;99.90;;;;;;5004821;28;20044;-67
2022/07/07 07:41:43;;;;;;;12.38;5.82;;;14.60;99.90;;;;;;5006346;28;20022;-67
2022/07/07 07:44:11;;;;;;;11.52;4.78;;;14.60;99.90;;;;;;5005416;28;20030;-68
2022/07/07 07:46:38;;;;;;;13.93;5.20;;;14.60;99.90;;;;;;5006196;28;20492;-73
2022/07/07 07:49:06;;;;;;;12.30;3.28;;;14.60;99.90;;;;;;5005876;28;20014;-65
2022/07/07 07:51:34;;;;;;;12.45;3.15;;;14.50;99.90;;;;;;5007305;28;20053;-66
2022/07/07 07:54:01;;;;;;;16.90;4.38;;;14.50;99.90;;;;;;5007209;28;20037;-65
2022/07/07 07:56:29;;;;;;;12.13;4.68;;;14.40;99.90;;;;;;5038724;28;20046;-68
2022/07/07 07:58:56;;;;;;;12.52;4.30;;;14.40;99.90;;;;;;5006507;28;20030;-67
2022/07/07 08:01:23;;;;;;;13.82;4.72;;;14.30;99.90;;;;;;5006250;28;20033;-67
2022/07/07 08:03:51;;;;;;;13.85;5.53;;;14.40;99.90;;;;;;5006178;28;20044;-67
2022/07/07 08:06:18;;;;;;;22.20;8.35;;;14.30;99.90;;;;;;5005442;28;20018;-70
2022/07/07 08:08:45;;;;;;;16.63;6.75;;;14.30;99.90;;;;;;5005613;28;20018;-65
2022/07/07 08:11:12;;;;;;;15.35;5.63;;;14.30;99.90;;;;;;5007688;28;21805;-66
2022/07/07 08:13:40;;;;;;;17.80;5.97;;;14.20;99.90;;;;;;5005529;28;20391;-73
2022/07/07 08:16:07;;;;;;;13.55;5.68;;;14.20;99.90;;;;;;5004951;28;20072;-67
2022/07/07 08:18:35;;;;;;;12.32;4.35;;;14.30;99.90;;;;;;5002552;28;20509;-66
2022/07/07 08:21:02;;;;;;;8.63;3.80;;;14.20;99.90;;;;;;5006311;28;20051;-66
2022/07/07 08:23:29;;;;;;;9.52;4.50;;;14.20;99.90;;;;;;5006033;28;20387;-66
2022/07/07 08:25:56;;;;;;;12.68;3.92;;;14.10;99.90;;;;;;5002887;28;20025;-66
2022/07/07 08:28:24;;;;;;;13.68;5.15;;;14.10;99.90;;;;;;5005772;28;20037;-64
2022/07/07 08:30:51;;;;;;;14.40;6.68;;;14.10;99.90;;;;;;5020006;28;20028;-64
2022/07/07 08:33:18;;;;;;;15.80;6.18;;;14.10;99.90;;;;;;5016277;28;20037;-65
2022/07/07 08:35:46;;;;;;;14.57;6.13;;;14.00;99.90;;;;;;5005609;28;20018;-65
2022/07/07 08:38:13;;;;;;;13.35;4.57;;;14.00;99.90;;;;;;5002545;28;20034;-69
2022/07/07 08:40:41;;;;;;;16.13;10.70;;;14.00;99.90;;;;;;5003985;28;20022;-65
2022/07/07 08:43:08;;;;;;;13.32;4.85;;;13.90;99.90;;;;;;5004093;28;20022;-71
2022/07/07 08:45:36;;;;;;;15.20;4.75;;;13.90;99.90;;;;;;5004943;28;20502;-66
2022/07/07 08:48:03;;;;;;;13.05;3.95;;;13.80;99.90;;;;;;5004105;28;20461;-65
2022/07/07 08:50:31;;;;;;;10.05;3.03;;;13.80;99.90;;;;;;5007683;28;20045;-66
2022/07/07 08:53:02;;;;;;;16.40;3.75;;;13.70;99.90;;;;;;5004966;28;20034;-69
2022/07/07 08:55:35;;;;;;;12.68;4.88;;;13.70;99.90;;;;;;5001719;28;20065;-66
2022/07/07 08:58:02;;;;;;;12.38;3.70;;;13.70;99.90;;;;;;5005725;28;20076;-64
2022/07/07 09:00:30;;;;;;;11.13;3.67;;;13.70;99.90;;;;;;5005600;28;20030;-66
2022/07/07 09:02:58;;;;;;;9.20;3.88;;;13.60;99.90;;;;;;5005889;28;20145;-67
2022/07/07 09:05:31;;;;;;;13.25;4.35;;;13.60;99.90;;;;;;5004551;28;20072;-68
2022/07/07 09:07:58;;;;;;;15.73;4.82;;;13.60;99.90;;;;;;5005585;28;20878;-70
2022/07/07 09:10:42;;;;;;;13.40;5.00;;;13.60;99.90;;;;;;5005077;28;20025;-69
2022/07/07 09:13:30;;;;;;;15.25;4.80;;;13.60;99.90;;;;;;5004280;28;20168;-66
2022/07/07 09:16:01;;;;;;;17.25;9.25;;;13.50;99.90;;;;;;5005422;28;20084;-69
2022/07/07 09:18:29;;;;;;;19.58;6.35;;;13.50;99.90;;;;;;5004195;28;20490;-71
2022/07/07 09:20:57;;;;;;;18.95;6.78;;;13.50;99.90;;;;;;5005448;28;20053;-67
2022/07/07 09:23:24;;;;;;;16.10;6.72;;;13.40;99.90;;;;;;5004830;28;20029;-69
2022/07/07 09:25:52;;;;;;;18.20;7.03;;;13.40;99.90;;;;;;5006312;28;20022;-66
2022/07/07 09:28:19;;;;;;;14.55;5.45;;;13.40;99.90;;;;;;5004942;28;20022;-70
2022/07/07 09:30:48;;;;;;;20.38;5.93;;;13.40;99.90;;;;;;5004706;28;20022;-65
2022/07/07 09:33:19;;;;;;;18.33;6.38;;;13.40;99.90;;;;;;5004571;28;20024;-66
2022/07/07 09:38:33;;;;;;;17.23;6.22;;;13.30;99.90;;;;;;5003174;28;20540;-72
2022/07/07 09:41:10;;;;;;;13.48;5.32;;;13.30;99.90;;;;;;5011543;28;20526;-66
2022/07/07 09:43:58;;;;;;;13.40;6.53;;;13.20;99.90;;;;;;5008456;28;20037;-70
2022/07/07 09:46:29;;;;;;;13.68;5.22;;;13.20;99.90;;;;;;5003979;28;20014;-67
2022/07/07 09:48:58;;;;;;;13.20;4.95;;;13.10;99.90;;;;;;5004461;28;20045;-64
2022/07/07 09:51:33;;;;;;;11.15;5.10;;;13.10;99.90;;;;;;5001439;28;20040;-65
2022/07/07 09:54:14;;;;;;;13.75;5.90;;;13.10;99.90;;;;;;5009646;28;20112;-65
2022/07/07 09:56:46;;;;;;;16.50;5.32;;;13.10;99.90;;;;;;5004181;28;20124;-72
2022/07/07 09:59:16;;;;;;;12.25;6.05;;;13.00;99.90;;;;;;5007035;28;20040;-65
2022/07/07 10:01:46;;;;;;;8.85;4.20;;;13.00;99.90;;;;;;5021385;28;20025;-67
2022/07/07 10:04:22;;;;;;;15.40;5.00;;;12.90;99.90;;;;;;5015515;28;20506;-64
2022/07/07 10:06:50;;;;;;;9.05;4.50;;;12.90;99.90;;;;;;5003311;28;20038;-71
2022/07/07 10:09:20;;;;;;;13.82;4.95;;;12.80;99.90;;;;;;5003993;28;20018;-65
2022/07/07 10:11:51;;;;;;;13.63;5.22;;;12.80;99.90;;;;;;5003731;28;20127;-65
2022/07/07 10:14:19;;;;;;;13.20;5.90;;;12.80;99.90;;;;;;5003907;28;20434;-69
2022/07/07 10:16:48;;;;;;;11.90;4.07;;;12.80;99.90;;;;;;5004004;28;20026;-66
2022/07/07 10:19:19;;;;;;;18.77;6.95;;;12.80;99.90;;;;;;5005102;28;20030;-74
2022/07/07 10:21:49;;;;;;;7.63;3.78;;;12.70;99.90;;;;;;5016428;28;20021;-68
2022/07/07 10:24:19;;;;;;;11.90;3.80;;;12.70;99.90;;;;;;5023761;28;20025;-71
2022/07/07 10:26:58;;;;;;;9.80;4.53;;;12.70;99.90;;;;;;5022647;28;20359;-69
2022/07/07 10:29:39;;;;;;;9.32;4.75;;;12.60;99.90;;;;;;5004405;28;20026;-74
2022/07/07 10:32:08;;;;;;;12.90;6.55;;;12.60;99.90;;;;;;5004951;28;20141;-68
2022/07/07 10:34:38;;;;;;;17.13;15.02;;;12.60;99.90;;;;;;5014177;28;20116;-67
2022/07/07 10:37:11;;;;;;;7.78;4.85;;;12.60;99.90;;;;;;5004803;28;20084;-76
2022/07/07 10:39:43;;;;;;;6.00;3.47;;;12.60;99.90;;;;;;5003751;28;20064;-68
2022/07/07 10:42:17;;;;;;;14.85;10.45;;;12.50;99.90;;;;;;5004057;28;20030;-75
2022/07/07 10:44:47;;;;;;;10.63;6.00;;;12.50;99.90;;;;;;5003162;28;20057;-70
2022/07/07 10:47:17;;;;;;;13.25;9.02;;;12.40;99.90;;;;;;5003796;28;20022;-70
2022/07/07 10:49:53;;;;;;;12.18;5.00;;;12.40;99.90;;;;;;5004911;28;20356;-74
2022/07/07 10:52:22;;;;;;;11.23;7.13;;;12.30;99.90;;;;;;5004241;28;20037;-72
2022/07/07 10:55:03;;;;;;;6.05;4.18;;;12.30;99.90;;;;;;5002599;28;20014;-73
2022/07/07 10:57:43;;;;;;;7.25;3.50;;;12.30;99.90;;;;;;5001194;28;20044;-76
2022/07/07 11:00:18;;;;;;;4.47;3.15;;;12.20;99.90;;;;;;5001909;28;20025;-78
2022/07/07 11:02:52;;;;;;;5.70;4.10;;;12.20;99.90;;;;;;5000056;28;20030;-75
2022/07/07 11:05:19;;;;;;;7.80;3.55;;;12.20;99.90;;;;;;5005067;28;20543;-78
2022/07/07 11:07:59;;;;;;;6.75;2.90;;;12.20;99.90;;;;;;4999497;28;20379;-67
2022/07/07 11:10:44;;;;;;;5.40;3.15;;;12.10;99.90;;;;;;5000302;28;20025;-65
2022/07/07 11:13:21;;;;;;;6.95;4.25;;;12.10;99.90;;;;;;5004289;28;20092;-68
2022/07/07 11:16:08;;;;;;;6.90;3.95;;;12.10;99.90;;;;;;5002086;28;20018;-67
2022/07/07 11:18:36;;;;;;;5.60;3.88;;;12.10;99.90;;;;;;5005466;28;20038;-72
2022/07/07 11:21:06;;;;;;;7.53;5.75;;;12.00;99.90;;;;;;5005457;28;20018;-71
2022/07/07 11:23:47;;;;;;;4.68;3.55;;;12.00;99.90;;;;;;5005211;28;20104;-68
2022/07/07 11:26:23;;;;;;;8.73;5.32;;;11.90;99.90;;;;;;5004390;28;20469;-66
2022/07/07 11:28:52;;;;;;;5.50;2.80;;;11.90;99.90;;;;;;5003231;28;20076;-71
2022/07/07 11:31:20;;;;;;;3.47;2.25;;;11.80;99.90;;;;;;5004690;28;20030;-67
2022/07/07 11:33:57;;;;;;;4.95;2.60;;;11.70;99.90;;;;;;5004127;28;20024;-67
2022/07/07 11:36:28;;;;;;;4.00;2.00;;;11.70;99.90;;;;;;5004957;28;20022;-70
2022/07/07 11:39:04;;;;;;;5.82;1.90;;;11.70;99.90;;;;;;5003820;28;20100;-70
2022/07/07 11:41:45;;;;;;;4.85;2.00;;;11.70;99.90;;;;;;5003800;28;20104;-67
2022/07/07 11:44:22;;;;;;;5.72;3.15;;;11.60;99.90;;;;;;5004982;28;20033;-64
2022/07/07 11:46:53;;;;;;;11.52;8.20;;;11.70;99.90;;;;;;5002130;28;20046;-66
2022/07/07 11:49:22;;;;;;;21.02;18.90;;;11.70;99.90;;;;;;5002279;28;20469;-67
2022/07/07 11:51:49;;;;;;;12.13;10.93;;;11.60;99.90;;;;;;5004519;28;20029;-66
2022/07/07 11:54:17;;;;;;;4.78;2.97;;;11.70;99.90;;;;;;5006718;28;20021;-64
2022/07/07 11:56:44;;;;;;;6.63;5.38;;;11.60;99.90;;;;;;5004586;28;20581;-72
2022/07/07 11:59:12;;;;;;;6.53;4.72;;;11.60;99.90;;;;;;5005312;28;20399;-67
2022/07/07 12:01:43;;;;;;;6.43;4.72;;;11.60;99.90;;;;;;5005003;28;20501;-66
2022/07/07 12:04:18;;;;;;;5.18;2.42;;;11.50;99.90;;;;;;5004642;28;20037;-73
2022/07/07 12:06:45;;;;;;;4.85;2.33;;;11.50;99.90;;;;;;5002319;28;20540;-74
2022/07/07 12:09:13;;;;;;;4.25;2.40;;;11.50;99.90;;;;;;5008836;28;20482;-76
2022/07/07 12:11:42;;;;;;;4.40;2.22;;;11.40;99.90;;;;;;5005226;28;20036;-71
2022/07/07 12:14:12;;;;;;;4.45;2.20;;;11.40;99.90;;;;;;5005121;28;20347;-72
2022/07/07 12:16:52;;;;;;;3.92;2.55;;;11.40;99.90;;;;;;4988732;28;20386;-70
2022/07/07 12:19:21;;;;;;;6.30;3.88;;;11.30;99.90;;;;;;5004177;28;20181;-75
2022/07/07 12:21:50;;;;;;;5.22;3.78;;;11.40;99.90;;;;;;5001208;28;20029;-70
2022/07/07 12:24:23;;;;;;;5.35;3.83;;;11.30;99.90;;;;;;5004599;28;20109;-66
2022/07/07 12:26:51;;;;;;;4.05;3.33;;;11.30;99.90;;;;;;5003141;28;20028;-69
2022/07/07 12:29:20;;;;;;;4.95;3.70;;;11.30;99.90;;;;;;5004667;28;20493;-71
2022/07/07 12:31:50;;;;;;;5.18;2.80;;;11.30;99.90;;;;;;5005285;28;20034;-68
2022/07/07 12:34:19;;;;;;;7.72;3.63;;;11.20;99.90;;;;;;5006990;28;20034;-70
2022/07/07 12:36:48;;;;;;;6.43;3.03;;;11.20;99.90;;;;;;5002165;28;20048;-70
2022/07/07 12:39:16;;;;;;;5.25;2.95;;;11.20;99.90;;;;;;5004566;28;20071;-68
2022/07/07 12:41:43;;;;;;;5.95;3.33;;;11.20;99.90;;;;;;5018148;28;20242;-68
2022/07/07 12:44:30;;;;;;;3.60;2.50;;;11.20;99.90;;;;;;5023971;28;20158;-70
2022/07/07 12:46:58;;;;;;;6.28;2.63;;;11.10;99.90;;;;;;4986468;28;20115;-68
2022/07/07 12:49:26;;;;;;;4.07;2.83;;;11.10;99.90;;;;;;4987091;28;20058;-67
2022/07/07 12:51:55;;;;;;;7.97;3.72;;;11.10;99.90;;;;;;4994608;28;20014;-75
2022/07/07 12:54:30;;;;;;;5.15;4.22;;;11.10;99.90;;;;;;5005846;28;20025;-66
2022/07/07 12:57:01;;;;;;;3.88;2.42;;;11.10;99.90;;;;;;5006016;28;20129;-69